Time;durP1;ratioP1;P1;durP2;ratioP2;P2;SDS_P1;SDS_P2;PMS_P1;PMS_P2;Temp;Humidity;BMP_temperature;BMP_pressure;BME280_temperature;BME280_humidity;BME280_pressure;Samples;Min_cycle;Max_cycle;Signal;HPM_P1;HPM_P2
2023/07/29 00:02:26;;;;;;;5.80;3.70;;;;;;;18.76;100.00;99555.25;177658;1265;44797;-82
2023/07/29 00:06:29;;;;;;;6.30;4.10;;;;;;;18.76;100.00;99552.71;177673;1263;44609;-82
2023/07/29 00:10:35;;;;;;;6.60;4.00;;;;;;;18.73;100.00;99547.22;177522;1265;46012;-81
2023/07/29 00:14:38;;;;;;;2.70;2.50;;;;;;;18.69;100.00;99549.35;177382;1262;46079;-82
2023/07/29 00:18:41;;;;;;;2.40;2.20;;;;;;;18.62;100.00;99554.11;177824;1264;58838;-82
2023/07/29 00:22:44;;;;;;;4.70;3.70;;;;;;;18.53;100.00;99555.30;177784;1263;45434;-82
2023/07/29 00:26:47;;;;;;;3.70;3.10;;;;;;;18.50;100.00;99558.39;177806;1264;46047;-82
2023/07/29 00:30:50;;;;;;;4.50;3.40;;;;;;;18.48;100.00;99560.64;177796;1265;46030;-82
2023/07/29 00:34:53;;;;;;;5.70;3.20;;;;;;;18.43;100.00;99558.70;177277;1265;46243;-82
2023/07/29 00:38:57;;;;;;;6.00;3.00;;;;;;;18.31;100.00;99552.64;177385;1263;58620;-83
2023/07/29 00:43:00;;;;;;;11.00;4.00;;;;;;;18.16;100.00;99561.88;177661;1264;45866;-82
2023/07/29 00:47:06;;;;;;;5.10;3.30;;;;;;;18.09;100.00;99560.63;178091;1265;46007;-83
2023/07/29 00:51:08;;;;;;;;;;;;;;;18.07;100.00;99557.08;177600;1264;46071;-82
2023/07/29 00:55:11;;;;;;;8.80;3.80;;;;;;;18.03;100.00;99553.09;177994;1263;45918;-83
2023/07/29 00:59:15;;;;;;;5.00;3.80;;;;;;;17.99;100.00;99554.57;177836;1263;57915;-83
2023/07/29 01:03:18;;;;;;;6.40;3.60;;;;;;;17.99;100.00;99565.78;177975;1263;46063;-82
2023/07/29 01:07:40;;;;;;;4.60;3.10;;;;;;;18.07;100.00;99563.41;177710;1264;46037;-82
2023/07/29 01:12:08;;;;;;;4.50;3.40;;;;;;;18.04;100.00;99560.93;178100;1264;46059;-82
2023/07/29 01:16:23;;;;;;;7.70;4.50;;;;;;;18.01;100.00;99553.67;177553;1267;46169;-81
2023/07/29 01:20:28;;;;;;;26.10;4.10;;;;;;;18.02;100.00;99549.41;177442;1263;59559;-82
2023/07/29 01:24:31;;;;;;;5.00;3.10;;;;;;;18.05;100.00;99547.82;177176;1264;46142;-82
2023/07/29 01:28:34;;;;;;;3.90;3.20;;;;;;;18.07;100.00;99551.85;177469;1264;46024;-82
2023/07/29 01:32:38;;;;;;;9.30;3.60;;;;;;;18.02;100.00;99554.45;177492;1263;45874;-81
2023/07/29 01:36:43;;;;;;;11.80;3.10;;;;;;;17.99;100.00;99553.05;177427;1265;46248;-82
2023/07/29 01:40:50;;;;;;;2.90;2.50;;;;;;;17.99;100.00;99553.86;177262;1264;58874;-82
2023/07/29 01:44:54;;;;;;;4.10;3.00;;;;;;;18.04;100.00;99553.19;177385;1264;46072;-82
2023/07/29 01:48:56;;;;;;;2.90;2.50;;;;;;;18.05;100.00;99552.95;177217;1263;46146;-82
2023/07/29 01:52:59;;;;;;;5.10;3.10;;;;;;;18.06;100.00;99548.54;177259;1263;46005;-82
2023/07/29 01:57:03;;;;;;;3.70;2.40;;;;;;;18.11;100.00;99547.84;177475;1263;46033;-82
2023/07/29 02:01:06;;;;;;;4.90;3.30;;;;;;;18.12;100.00;99550.17;177488;1267;57937;-82
2023/07/29 02:05:09;;;;;;;4.20;2.70;;;;;;;18.12;100.00;99546.54;177835;1264;46143;-81
2023/07/29 02:09:12;;;;;;;4.30;2.90;;;;;;;18.19;100.00;99545.75;177609;1263;46047;-82
2023/07/29 02:13:16;;;;;;;5.10;2.20;;;;;;;18.24;100.00;99544.51;177410;1263;46035;-82
2023/07/29 02:17:19;;;;;;;3.00;1.70;;;;;;;18.29;100.00;99545.79;177265;1263;46075;-82
2023/07/29 02:21:22;;;;;;;2.80;2.40;;;;;;;18.30;100.00;99544.85;177649;1264;59253;-83
2023/07/29 02:25:25;;;;;;;4.50;2.40;;;;;;;18.29;100.00;99542.73;177246;1264;46049;-82
2023/07/29 02:29:29;;;;;;;3.00;2.50;;;;;;;18.26;100.00;99538.15;177378;1265;46025;-82
2023/07/29 02:33:32;;;;;;;4.60;3.40;;;;;;;18.27;100.00;99537.36;177334;1263;44816;-82
2023/07/29 02:37:35;;;;;;;8.60;2.40;;;;;;;18.25;100.00;99534.70;177569;1264;44357;-81
2023/07/29 02:41:38;;;;;;;4.00;2.40;;;;;;;18.22;100.00;99533.44;177561;1264;58242;-82
2023/07/29 02:45:41;;;;;;;5.70;2.60;;;;;;;18.20;100.00;99529.41;177517;1267;46065;-82
2023/07/29 02:49:44;;;;;;;3.70;1.80;;;;;;;18.20;100.00;99529.82;177799;1265;46155;-82
2023/07/29 02:53:47;;;;;;;3.10;2.80;;;;;;;18.19;100.00;99532.04;177814;1263;47862;-82
2023/07/29 02:57:49;;;;;;;5.30;3.20;;;;;;;18.11;100.00;99538.15;177636;1262;46011;-81
2023/07/29 03:01:53;;;;;;;5.90;2.20;;;;;;;17.89;100.00;99546.73;177529;1264;58824;-82
2023/07/29 03:06:01;;;;;;;11.70;3.20;;;;;;;17.59;100.00;99549.15;177467;1264;46129;-82
2023/07/29 03:10:06;;;;;;;3.40;2.60;;;;;;;17.46;100.00;99552.86;177411;1264;46023;-83
2023/07/29 03:14:09;;;;;;;10.70;3.00;;;;;;;17.48;100.00;99556.80;177341;1264;46133;-83
2023/07/29 03:18:12;;;;;;;3.70;3.00;;;;;;;17.54;100.00;99563.75;177201;1264;45872;-83
2023/07/29 03:22:15;;;;;;;5.90;2.90;;;;;;;17.67;100.00;99566.48;177212;1263;60035;-83
2023/07/29 03:26:18;;;;;;;4.30;2.90;;;;;;;17.77;100.00;99562.50;177513;1264;46025;-83
2023/07/29 03:30:22;;;;;;;8.60;2.20;;;;;;;17.87;100.00;99560.03;177058;1264;46053;-83
2023/07/29 03:34:24;;;;;;;2.90;2.40;;;;;;;18.00;100.00;99562.75;177609;1263;46066;-83
2023/07/29 03:38:27;;;;;;;7.20;2.60;;;;;;;18.09;100.00;99558.48;177475;1264;45963;-83
2023/07/29 03:42:30;;;;;;;3.20;1.30;;;;;;;18.17;100.00;99562.70;178176;1262;60667;-84
2023/07/29 03:46:33;;;;;;;2.60;2.20;;;;;;;18.25;100.00;99559.64;177497;1264;46059;-83
2023/07/29 03:50:37;;;;;;;4.50;1.30;;;;;;;18.35;100.00;99564.48;177887;1264;46146;-83
2023/07/29 03:54:40;;;;;;;1.60;1.50;;;;;;;18.44;100.00;99563.77;177550;1263;46025;-83
2023/07/29 03:58:45;;;;;;;2.90;2.20;;;;;;;18.53;100.00;99566.57;178117;1264;45945;-83
2023/07/29 04:02:48;;;;;;;5.80;1.50;;;;;;;18.57;100.00;99566.27;178196;1265;59258;-83
2023/07/29 04:06:51;;;;;;;4.60;1.80;;;;;;;18.64;100.00;99566.81;178013;1265;46184;-82
2023/07/29 04:10:54;;;;;;;3.60;2.20;;;;;;;18.75;100.00;99568.67;177772;1265;46024;-83
2023/07/29 04:14:57;;;;;;;3.10;1.50;;;;;;;18.83;100.00;99573.19;177393;1264;46014;-83
2023/07/29 04:19:01;;;;;;;6.20;2.20;;;;;;;18.94;100.00;99572.10;177598;1264;46133;-83
2023/07/29 04:23:03;;;;;;;6.00;2.80;;;;;;;19.06;100.00;99572.27;178068;1264;58413;-83
2023/07/29 04:27:06;;;;;;;8.30;2.30;;;;;;;19.13;100.00;99571.15;177636;1265;45946;-83
2023/07/29 04:31:09;;;;;;;7.50;2.90;;;;;;;19.13;100.00;99576.58;177874;1263;46023;-83
2023/07/29 04:35:12;;;;;;;7.40;2.40;;;;;;;19.21;100.00;99577.86;177554;1265;46050;-81
2023/07/29 04:39:16;;;;;;;6.40;2.50;;;;;;;19.39;100.00;99577.17;178091;1264;44932;-82
2023/07/29 04:43:19;;;;;;;3.90;2.20;;;;;;;19.63;100.00;99576.95;178150;1264;58150;-81
2023/07/29 04:47:22;;;;;;;4.10;1.60;;;;;;;19.88;100.00;99582.64;177920;1265;44271;-82
2023/07/29 04:51:27;;;;;;;7.80;2.30;;;;;;;20.29;100.00;99573.11;178385;1264;46005;-82
2023/07/29 04:55:30;;;;;;;3.60;1.70;;;;;;;21.02;100.00;99572.66;178101;1267;46141;-82
2023/07/29 04:59:33;;;;;;;5.20;2.40;;;;;;;22.22;100.00;99574.83;178396;1264;45907;-82
2023/07/29 05:03:36;;;;;;;3.30;1.30;;;;;;;23.46;100.00;99568.70;179334;1263;57978;-82
2023/07/29 05:07:39;;;;;;;2.40;1.30;;;;;;;24.52;98.18;99572.47;179316;1264;45965;-82
2023/07/29 05:11:45;;;;;;;4.50;1.00;;;;;;;25.39;90.22;99578.02;179129;1265;46057;-82
2023/07/29 05:15:49;;;;;;;4.20;1.00;;;;;;;26.00;85.65;99579.13;179410;1264;46132;-82
2023/07/29 05:19:52;;;;;;;4.30;0.90;;;;;;;26.62;84.77;99580.42;179485;1264;46162;-82
2023/07/29 05:23:55;;;;;;;2.00;0.30;;;;;;;27.25;81.07;99576.16;179446;1263;57950;-82
2023/07/29 05:27:58;;;;;;;1.10;1.00;;;;;;;27.65;78.60;99579.21;179484;1263;46155;-82
2023/07/29 05:32:01;;;;;;;3.80;1.60;;;;;;;28.05;76.64;99573.39;179853;1265;43576;-82
2023/07/29 05:36:04;;;;;;;2.10;0.50;;;;;;;28.55;75.15;99576.91;179816;1264;44173;-82
2023/07/29 05:40:08;;;;;;;6.90;1.40;;;;;;;28.85;73.02;99572.74;179880;1264;44663;-82
2023/07/29 05:44:11;;;;;;;2.00;0.90;;;;;;;29.12;72.68;99571.35;179782;1265;57645;-82
2023/07/29 05:48:14;;;;;;;2.00;0.40;;;;;;;29.25;70.77;99564.44;179944;1263;46011;-82
2023/07/29 05:52:17;;;;;;;0.70;0.70;;;;;;;29.27;69.99;99567.19;179955;1264;46072;-82
2023/07/29 05:56:20;;;;;;;0.70;0.60;;;;;;;29.47;69.33;99566.56;179892;1264;43773;-83
2023/07/29 06:00:24;;;;;;;5.90;1.40;;;;;;;29.57;68.31;99564.63;179726;1263;46051;-83
2023/07/29 06:04:28;;;;;;;1.00;0.60;;;;;;;29.41;67.46;99559.52;179825;1263;58224;-83
2023/07/29 06:08:34;;;;;;;7.30;1.10;;;;;;;29.16;68.18;99557.51;179948;1264;45028;-82
2023/07/29 06:12:38;;;;;;;0.80;0.50;;;;;;;29.10;69.59;99558.70;179892;1265;43770;-82
2023/07/29 06:16:42;;;;;;;4.40;1.60;;;;;;;29.15;68.87;99553.68;179848;1265;43790;-83
2023/07/29 06:20:45;;;;;;;0.60;0.50;;;;;;;28.87;68.82;99552.75;180041;1264;43745;-82
2023/07/29 06:24:49;;;;;;;0.70;0.70;;;;;;;28.78;70.00;99550.86;179800;1263;57053;-82
2023/07/29 06:28:53;;;;;;;1.60;1.20;;;;;;;28.74;69.93;99556.69;179561;1264;44559;-82
2023/07/29 06:32:57;;;;;;;16.50;2.10;;;;;;;28.57;70.57;99557.29;179790;1267;46155;-83
2023/07/29 06:37:01;;;;;;;1.00;0.80;;;;;;;28.55;70.09;99551.26;179665;1265;43907;-83
2023/07/29 06:41:05;;;;;;;2.50;0.50;;;;;;;28.20;71.46;99553.30;179732;1265;46023;-83
2023/07/29 06:45:10;;;;;;;0.70;0.50;;;;;;;28.13;72.73;99555.96;179784;1265;58191;-82
2023/07/29 06:49:14;;;;;;;1.40;0.80;;;;;;;28.12;72.83;99556.88;179918;1264;43883;-82
2023/07/29 06:53:22;;;;;;;1.60;0.80;;;;;;;28.10;72.27;99557.14;179930;1264;45994;-82
2023/07/29 06:57:27;;;;;;;0.70;0.50;;;;;;;28.16;72.84;99557.74;179681;1264;45950;-82
2023/07/29 07:01:30;;;;;;;1.10;0.80;;;;;;;28.45;72.11;99551.02;179490;1263;43671;-83
2023/07/29 07:05:34;;;;;;;1.90;1.40;;;;;;;28.30;71.10;99546.32;179792;1265;57932;-83
2023/07/29 07:09:38;;;;;;;0.70;0.70;;;;;;;28.18;72.00;99550.61;179827;1265;46375;-82
2023/07/29 07:13:42;;;;;;;1.80;1.20;;;;;;;28.06;71.88;99549.55;179877;1263;45967;-82
2023/07/29 07:17:45;;;;;;;0.50;0.50;;;;;;;28.08;73.30;99545.52;179675;1263;46135;-82
2023/07/29 07:21:49;;;;;;;1.50;0.90;;;;;;;28.13;73.16;99538.97;179603;1264;45953;-83
2023/07/29 07:25:52;;;;;;;1.60;0.90;;;;;;;28.52;72.36;99532.91;179563;1264;58338;-82
2023/07/29 07:29:56;;;;;;;2.20;1.00;;;;;;;28.63;70.09;99527.02;179672;1264;44184;-82
2023/07/29 07:34:02;;;;;;;4.10;1.00;;;;;;;28.82;71.08;99527.24;179889;1264;44800;-83
2023/07/29 07:38:07;;;;;;;1.70;0.80;;;;;;;28.96;69.36;99525.27;179521;1265;45972;-84
2023/07/29 07:42:10;;;;;;;0.90;0.60;;;;;;;28.75;69.32;99530.52;179705;1263;46078;-83
2023/07/29 07:46:14;;;;;;;5.40;1.80;;;;;;;28.61;70.19;99528.14;179679;1265;58031;-83
2023/07/29 07:50:18;;;;;;;9.60;1.40;;;;;;;28.56;69.59;99528.78;179770;1265;44649;-84
2023/07/29 07:54:22;;;;;;;1.00;0.70;;;;;;;28.19;69.91;99525.73;179711;1264;44711;-84
2023/07/29 07:58:26;;;;;;;1.10;0.70;;;;;;;28.08;70.76;99523.65;179549;1264;44762;-84
2023/07/29 08:02:29;;;;;;;3.50;1.10;;;;;;;28.30;72.22;99516.07;179614;1265;45167;-84
2023/07/29 08:06:33;;;;;;;0.80;0.80;;;;;;;28.92;69.22;99506.38;179350;1265;59229;-83
2023/07/29 08:10:37;;;;;;;2.30;0.70;;;;;;;29.39;67.15;99494.66;179446;1265;44644;-83
2023/07/29 08:14:41;;;;;;;0.90;0.50;;;;;;;29.74;64.88;99491.38;179877;1265;45972;-83
2023/07/29 08:18:45;;;;;;;1.10;1.00;;;;;;;30.14;65.67;99484.48;179797;1263;44746;-83
2023/07/29 08:22:48;;;;;;;3.30;1.00;;;;;;;30.47;63.80;99478.06;180489;1265;45973;-84
2023/07/29 08:26:52;;;;;;;0.90;0.50;;;;;;;30.73;61.82;99469.34;180352;1269;58422;-84
2023/07/29 08:30:56;;;;;;;2.00;0.80;;;;;;;30.90;61.53;99468.23;179852;1264;45948;-82
2023/07/29 08:35:00;;;;;;;8.70;1.90;;;;;;;31.06;60.58;99472.32;180071;1264;44108;-84
2023/07/29 08:39:04;;;;;;;0.60;0.60;;;;;;;30.96;60.05;99474.23;180155;1264;43472;-83
2023/07/29 08:43:10;;;;;;;1.10;0.80;;;;;;;30.95;60.58;99476.77;180011;1264;44494;-84
2023/07/29 08:47:13;;;;;;;1.20;0.80;;;;;;;30.90;61.11;99476.91;179818;1265;60281;-83
2023/07/29 08:51:19;;;;;;;0.50;0.50;;;;;;;30.83;58.87;99465.52;179564;1264;44618;-83
2023/07/29 08:55:23;;;;;;;2.80;1.00;;;;;;;30.79;60.74;99461.17;179764;1267;43536;-85
2023/07/29 08:59:28;;;;;;;7.30;4.00;;;;;;;30.70;61.06;99457.87;179906;1264;44607;-84
2023/07/29 09:03:32;;;;;;;3.00;1.80;;;;;;;30.58;61.89;99459.70;180245;1265;43575;-82
2023/07/29 09:07:37;;;;;;;1.40;0.90;;;;;;;30.49;61.00;99447.56;179720;1263;58007;-84
2023/07/29 09:11:40;;;;;;;2.20;1.10;;;;;;;30.46;62.68;99446.84;179852;1264;46017;-83
2023/07/29 09:15:45;;;;;;;6.20;1.40;;;;;;;30.59;59.68;99441.76;180145;1265;46087;-83
2023/07/29 09:19:55;;;;;;;0.80;0.50;;;;;;;30.92;59.61;99441.95;179816;1263;43741;-83
2023/07/29 09:24:04;;;;;;;0.30;0.30;;;;;;;31.31;58.99;99440.66;180278;1264;43929;-84
2023/07/29 09:28:14;;;;;;;1.10;1.10;;;;;;;31.54;57.30;99440.45;180391;1263;58000;-82
2023/07/29 09:32:40;;;;;;;1.50;1.00;;;;;;;31.66;57.42;99432.59;180565;1262;43426;-91
2023/07/29 09:37:00;;;;;;;1.30;0.90;;;;;;;31.88;57.52;99419.13;179693;1265;46004;-91
2023/07/29 09:41:24;;;;;;;2.40;0.80;;;;;;;32.07;55.68;99417.84;179576;1264;44759;-90
2023/07/29 09:45:29;;;;;;;1.20;0.70;;;;;;;32.04;55.10;99420.52;179382;1264;45936;-91
2023/07/29 09:49:38;;;;;;;1.30;0.70;;;;;;;31.99;55.29;99420.39;179488;1265;60646;-91
2023/07/29 09:53:55;;;;;;;1.00;0.80;;;;;;;32.02;56.99;99420.42;179066;1264;909167;-90
2023/07/29 09:58:03;;;;;;;1.30;1.20;;;;;;;32.12;56.37;99417.07;179590;1264;50693;-88
2023/07/29 10:02:16;;;;;;;1.40;1.20;;;;;;;32.16;55.93;99412.67;177913;1265;45999;-88
2023/07/29 10:06:21;;;;;;;5.60;1.60;;;;;;;31.98;55.98;99411.27;178050;1268;46205;-87
2023/07/29 10:10:25;;;;;;;1.00;1.00;;;;;;;31.66;56.00;99408.29;178078;1269;58416;-88
2023/07/29 10:14:31;;;;;;;11.30;2.70;;;;;;;31.47;56.35;99405.33;177715;1264;44082;-88
2023/07/29 10:18:34;;;;;;;1.60;1.20;;;;;;;31.32;57.22;99399.07;177643;1264;48216;-88
2023/07/29 10:22:40;;;;;;;2.90;2.20;;;;;;;31.20;56.33;99393.65;177601;1268;46544;-89
2023/07/29 10:26:47;;;;;;;2.80;1.40;;;;;;;30.90;58.28;99390.53;178106;1266;46111;-87
2023/07/29 10:30:51;;;;;;;1.90;1.30;;;;;;;30.71;57.48;99391.29;177881;1264;59085;-88
2023/07/29 10:34:55;;;;;;;6.30;1.90;;;;;;;30.54;58.18;99383.49;178151;1266;44160;-89
2023/07/29 10:38:58;;;;;;;2.10;1.60;;;;;;;30.38;59.38;99376.94;178651;1265;46117;-88
2023/07/29 10:43:10;;;;;;;2.60;1.70;;;;;;;30.20;62.55;99379.23;178611;1264;45908;-88
2023/07/29 10:47:45;;;;;;;1.50;1.40;;;;;;;30.20;61.79;99382.20;179230;1264;45970;-92
2023/07/29 10:56:29;;;;;;;4.40;2.70;;;;;;;30.06;61.06;99370.39;170667;1265;45990;-64
2023/07/29 11:00:39;;;;;;;4.00;2.40;;;;;;;30.02;61.71;99361.17;179336;1265;45988;-64
2023/07/29 11:04:51;;;;;;;2.40;1.90;;;;;;;30.03;62.02;99353.50;179750;1264;43665;-64
2023/07/29 11:09:38;;;;;;;4.00;1.70;;;;;;;30.21;61.57;99347.38;179652;1265;43494;-64
2023/07/29 11:14:07;;;;;;;2.80;2.40;;;;;;;30.21;60.42;99343.85;179639;1265;58927;-64
2023/07/29 11:18:41;;;;;;;5.30;2.20;;;;;;;30.10;59.04;99343.56;179663;1264;44767;-65
2023/07/29 11:22:46;;;;;;;1.80;1.70;;;;;;;30.10;60.47;99339.30;179702;1264;43656;-64
2023/07/29 11:26:50;;;;;;;6.30;1.80;;;;;;;30.22;60.22;99331.40;179524;1264;44870;-64
2023/07/29 11:30:55;;;;;;;2.00;1.50;;;;;;;30.29;59.53;99327.92;179552;1265;45998;-63
2023/07/29 11:35:15;;;;;;;2.10;1.70;;;;;;;30.34;60.15;99318.08;179507;1265;58237;-64
2023/07/29 11:39:19;;;;;;;4.60;2.80;;;;;;;30.65;63.52;99317.88;179618;1265;43807;-64
2023/07/29 11:43:22;;;;;;;3.70;2.60;;;;;;;30.74;63.73;99319.86;179630;1264;44033;-63
2023/07/29 11:47:27;;;;;;;3.10;2.90;;;;;;;30.65;63.68;99310.04;179616;1265;44804;-65
2023/07/29 11:51:33;;;;;;;3.80;2.20;;;;;;;30.57;64.28;99312.38;179409;1265;43539;-69
2023/07/29 11:56:04;;;;;;;3.70;2.60;;;;;;;30.41;62.74;99306.20;180558;1265;58301;-60
2023/07/29 12:00:20;;;;;;;1.80;1.70;;;;;;;30.13;62.80;99304.67;180031;1263;44577;-60
2023/07/29 12:05:50;;;;;;;3.30;2.30;;;;;;;29.73;65.46;99330.86;179999;1264;43792;-60
2023/07/29 12:10:22;;;;;;;4.30;2.60;;;;;;;28.50;78.05;99376.02;179835;1265;45084;-61
2023/07/29 12:14:51;;;;;;;1.80;1.20;;;;;;;26.93;84.88;99378.45;179865;1265;44501;-61
2023/07/29 12:18:54;;;;;;;5.00;0.90;;;;;;;25.82;89.02;99387.91;179880;1265;58916;-61
2023/07/29 12:23:16;;;;;;;2.40;0.90;;;;;;;24.94;93.74;99376.45;179745;1264;45025;-60
2023/07/29 12:27:48;;;;;;;3.70;1.10;;;;;;;24.54;97.30;99359.62;179829;1265;43835;-60
2023/07/29 12:32:02;;;;;;;4.40;1.40;;;;;;;24.48;100.00;99346.66;180025;1264;44690;-61
2023/07/29 12:36:05;;;;;;;2.50;1.50;;;;;;;24.59;100.00;99328.14;179875;1264;43973;-60
2023/07/29 12:40:30;;;;;;;3.50;0.80;;;;;;;24.81;100.00;99320.46;180004;1264;58946;-61
2023/07/29 12:44:36;;;;;;;2.50;1.20;;;;;;;25.12;100.00;99309.15;179757;1264;43820;-61
2023/07/29 12:48:39;;;;;;;2.30;0.70;;;;;;;25.42;100.00;99295.65;179627;1268;44704;-61
2023/07/29 12:52:42;;;;;;;1.80;1.10;;;;;;;25.83;100.00;99300.73;179740;1264;45274;-62
2023/07/29 12:56:45;;;;;;;2.90;1.60;;;;;;;26.25;100.00;99304.13;179660;1265;45930;-62
2023/07/29 13:00:48;;;;;;;0.80;0.60;;;;;;;26.69;99.74;99304.84;179761;1264;58496;-60
2023/07/29 13:04:51;;;;;;;4.90;1.20;;;;;;;27.13;99.12;99297.48;179739;1264;43600;-60
2023/07/29 13:08:54;;;;;;;2.90;1.20;;;;;;;27.50;96.54;99298.33;179820;1265;43598;-61
2023/07/29 13:13:02;;;;;;;3.20;1.30;;;;;;;27.81;92.05;99297.64;179935;1264;43818;-61
2023/07/29 13:17:09;;;;;;;1.50;1.10;;;;;;;28.19;92.38;99292.10;179899;1264;44663;-59
2023/07/29 13:21:13;;;;;;;5.40;1.90;;;;;;;28.47;88.98;99288.83;179928;1264;59983;-60
2023/07/29 13:25:16;;;;;;;1.50;1.00;;;;;;;28.69;89.67;99289.08;179882;1264;45111;-59
2023/07/29 13:29:19;;;;;;;2.10;1.00;;;;;;;29.02;88.70;99284.82;179844;1263;44745;-59
2023/07/29 13:33:50;;;;;;;2.70;0.80;;;;;;;29.44;81.91;99276.60;179854;1268;45016;-58
2023/07/29 13:37:53;;;;;;;1.50;1.00;;;;;;;29.90;81.63;99269.92;179894;1268;45934;-60
2023/07/29 13:42:49;;;;;;;10.90;1.90;;;;;;;30.01;77.06;99260.73;179923;1268;58766;-61
2023/07/29 13:47:45;;;;;;;3.10;1.00;;;;;;;29.95;73.87;99261.45;179998;1263;43550;-60
2023/07/29 13:51:51;;;;;;;0.80;0.40;;;;;;;29.91;70.25;99263.50;179840;1266;43531;-60
2023/07/29 13:56:19;;;;;;;1.10;0.70;;;;;;;29.84;67.75;99259.41;179869;1263;44758;-60
2023/07/29 14:00:22;;;;;;;0.50;0.20;;;;;;;29.81;66.99;99254.98;179904;1268;43495;-60
2023/07/29 14:04:25;;;;;;;0.70;0.50;;;;;;;29.73;66.05;99252.54;179930;1264;58448;-60
2023/07/29 14:08:36;;;;;;;0.90;0.70;;;;;;;29.55;64.84;99245.03;180062;1264;43931;-61
2023/07/29 14:12:39;;;;;;;1.80;1.20;;;;;;;29.33;65.40;99260.33;179972;1263;45989;-61
2023/07/29 14:16:42;;;;;;;0.60;0.60;;;;;;;29.25;65.33;99257.60;179982;1264;45009;-61
2023/07/29 14:20:44;;;;;;;0.90;0.60;;;;;;;29.12;66.11;99258.65;179881;1263;45981;-61
2023/07/29 14:24:47;;;;;;;0.70;0.50;;;;;;;28.91;64.94;99255.09;179981;1263;57569;-61
2023/07/29 14:28:50;;;;;;;2.20;0.90;;;;;;;28.71;65.48;99255.77;180112;1264;45942;-61
2023/07/29 14:33:18;;;;;;;1.10;0.50;;;;;;;28.51;65.95;99251.26;180081;1267;43567;-60
2023/07/29 14:37:21;;;;;;;1.20;0.40;;;;;;;28.35;68.53;99245.36;179998;1263;45101;-61
2023/07/29 14:41:24;;;;;;;0.40;0.40;;;;;;;28.29;68.61;99236.60;180067;1264;43547;-60
2023/07/29 14:45:31;;;;;;;3.40;0.70;;;;;;;28.21;68.95;99236.30;180295;1264;57979;-60
2023/07/29 14:50:01;;;;;;;5.20;1.20;;;;;;;28.13;68.12;99231.39;180358;1264;43704;-61
2023/07/29 14:54:08;;;;;;;1.60;0.90;;;;;;;28.13;69.57;99229.85;179921;1264;46481;-60
2023/07/29 14:58:40;;;;;;;1.40;0.40;;;;;;;28.14;68.80;99229.53;179992;1264;45123;-60
2023/07/29 15:02:46;;;;;;;2.90;0.90;;;;;;;28.16;68.48;99232.39;180043;1264;45876;-61
2023/07/29 15:06:49;;;;;;;2.30;1.10;;;;;;;28.07;67.48;99231.25;179963;1264;58330;-61
2023/07/29 15:10:53;;;;;;;0.60;0.40;;;;;;;28.01;67.02;99234.52;180002;1264;44742;-60
2023/07/29 15:14:57;;;;;;;1.10;1.00;;;;;;;27.98;68.80;99236.52;180028;1264;43715;-60
2023/07/29 15:19:05;;;;;;;1.50;0.50;;;;;;;27.90;68.40;99239.55;180038;1263;46133;-60
2023/07/29 15:24:02;;;;;;;1.00;0.90;;;;;;;27.77;68.53;99235.34;180057;1264;46524;-60
2023/07/29 15:28:55;;;;;;;0.70;0.60;;;;;;;27.59;68.50;99242.23;179981;1264;58709;-60
2023/07/29 15:33:00;;;;;;;0.70;0.70;;;;;;;27.31;69.38;99243.67;180099;1267;43800;-83
2023/07/29 15:37:04;;;;;;;1.40;0.70;;;;;;;27.08;70.58;99251.75;178953;1273;46221;-83
2023/07/29 15:41:07;;;;;;;1.20;0.60;;;;;;;26.81;71.81;99242.77;179013;1267;45706;-82
2023/07/29 15:45:11;;;;;;;0.70;0.70;;;;;;;26.80;74.26;99243.84;179166;1267;44488;-83
2023/07/29 15:49:14;;;;;;;1.30;0.70;;;;;;;26.90;74.90;99251.48;178766;1267;58232;-84
2023/07/29 15:53:17;;;;;;;2.50;0.60;;;;;;;26.91;75.05;99254.17;178612;1268;46028;-84
2023/07/29 15:57:21;;;;;;;2.90;0.50;;;;;;;26.84;74.14;99257.42;178638;1267;43719;-83
2023/07/29 16:01:24;;;;;;;2.50;0.60;;;;;;;26.79;74.20;99259.82;178813;1270;45957;-84
2023/07/29 16:05:27;;;;;;;3.50;1.10;;;;;;;26.65;74.00;99265.68;178834;1272;46009;-83
2023/07/29 16:09:31;;;;;;;1.70;0.90;;;;;;;26.51;73.03;99264.14;179253;1270;58267;-83
2023/07/29 16:13:34;;;;;;;0.40;0.40;;;;;;;26.43;73.65;99263.17;179240;1269;44697;-84
2023/07/29 16:17:38;;;;;;;0.50;0.50;;;;;;;26.42;74.62;99264.90;178780;1267;46116;-83
2023/07/29 16:21:41;;;;;;;0.70;0.50;;;;;;;26.52;75.11;99259.73;179008;1267;45394;-84
2023/07/29 16:25:45;;;;;;;0.80;0.50;;;;;;;26.84;71.07;99259.89;178775;1272;46091;-84
2023/07/29 16:29:50;;;;;;;0.30;0.30;;;;;;;27.17;67.01;99250.83;179111;1267;58159;-83
2023/07/29 16:33:54;;;;;;;;;;;;;;;27.55;67.36;99253.56;179309;1269;44264;-84
2023/07/29 16:38:00;;;;;;;0.70;0.30;;;;;;;27.84;65.91;99248.70;178961;1267;45765;-82
2023/07/29 16:42:05;;;;;;;1.80;0.50;;;;;;;27.92;64.61;99248.46;178969;1270;46037;-84
2023/07/29 16:46:09;;;;;;;;;;;;;;;27.92;63.32;99246.73;178922;1270;44340;-84
2023/07/29 16:50:14;;;;;;;1.40;0.50;;;;;;;27.95;64.80;99248.70;179155;1269;58305;-83
2023/07/29 16:54:19;;;;;;;0.80;0.40;;;;;;;27.93;62.62;99249.30;179149;1269;46210;-84
2023/07/29 16:58:24;;;;;;;;;;;;;;;27.87;61.35;99242.80;178888;1269;46004;-84
2023/07/29 17:02:28;;;;;;;0.40;0.30;;;;;;;27.73;60.84;99240.02;179194;1269;45497;-82
2023/07/29 17:06:33;;;;;;;1.00;0.30;;;;;;;27.60;61.68;99243.77;178967;1270;43793;-83
2023/07/29 17:10:40;;;;;;;0.20;0.10;;;;;;;27.47;61.68;99245.36;178967;1270;60097;-83
2023/07/29 17:14:45;;;;;;;1.00;0.40;;;;;;;27.32;62.22;99239.58;179033;1269;46001;-84
2023/07/29 17:18:49;;;;;;;0.50;0.50;;;;;;;27.13;63.21;99234.87;179023;1270;45749;-84
2023/07/29 17:22:54;;;;;;;0.50;0.20;;;;;;;26.90;62.95;99237.09;179397;1270;46047;-83
2023/07/29 17:26:58;;;;;;;1.50;0.60;;;;;;;26.76;63.99;99242.56;179255;1270;46069;-83
2023/07/29 17:31:03;;;;;;;0.60;0.30;;;;;;;26.64;64.40;99248.88;179503;1270;59686;-83
2023/07/29 17:35:08;;;;;;;0.20;0.10;;;;;;;26.51;65.36;99259.33;179466;1270;46078;-82
2023/07/29 17:39:12;;;;;;;0.30;0.20;;;;;;;26.45;65.30;99268.92;179011;1272;44264;-81
2023/07/29 17:43:17;;;;;;;0.30;0.30;;;;;;;26.33;65.37;99269.50;178744;1270;44560;-82
2023/07/29 17:47:21;;;;;;;1.10;0.30;;;;;;;26.21;66.34;99285.98;178959;1269;45973;-82
2023/07/29 17:51:26;;;;;;;1.20;1.00;;;;;;;26.04;67.14;99297.14;179315;1268;58258;-82
2023/07/29 17:55:30;;;;;;;0.80;0.10;;;;;;;25.91;67.84;99301.33;179123;1270;46054;-82
2023/07/29 17:59:35;;;;;;;2.50;0.50;;;;;;;25.81;68.73;99304.73;179257;1271;44650;-82
2023/07/29 18:03:39;;;;;;;0.80;0.30;;;;;;;25.70;69.53;99313.29;179047;1272;46248;-83
2023/07/29 18:07:45;;;;;;;1.80;0.70;;;;;;;25.59;69.96;99313.24;179014;1271;46024;-82
2023/07/29 18:11:49;;;;;;;0.70;0.40;;;;;;;25.46;70.56;99318.15;179019;1271;57002;-82
2023/07/29 18:15:58;;;;;;;1.10;0.40;;;;;;;25.37;71.54;99317.44;179284;1270;44619;-83
2023/07/29 18:20:02;;;;;;;4.40;1.70;;;;;;;25.23;72.69;99323.59;179085;1269;46021;-83
2023/07/29 18:24:05;;;;;;;0.60;0.30;;;;;;;25.04;74.14;99328.98;178722;1270;44376;-82
2023/07/29 18:28:11;;;;;;;1.00;0.40;;;;;;;24.67;76.69;99332.36;178794;1270;43772;-82
2023/07/29 18:37:59;;;;;;;1.80;1.20;;;;;;;24.11;79.80;99323.84;177935;1267;45949;-60
2023/07/29 18:42:33;;;;;;;1.70;1.00;;;;;;;24.04;80.35;99333.05;179183;1267;43749;-60
2023/07/29 18:46:38;;;;;;;3.10;0.60;;;;;;;23.97;81.38;99349.45;178967;1267;46153;-60
2023/07/29 18:50:45;;;;;;;3.20;0.70;;;;;;;23.94;81.24;99351.63;179184;1267;45289;-61
2023/07/29 18:54:48;;;;;;;1.20;0.70;;;;;;;23.87;79.95;99365.00;179269;1267;58306;-61
2023/07/29 18:58:51;;;;;;;0.60;0.50;;;;;;;23.68;78.29;99367.01;179283;1267;44776;-60
2023/07/29 19:02:54;;;;;;;4.30;1.50;;;;;;;23.47;78.68;99367.27;179198;1267;46060;-60
2023/07/29 19:07:01;;;;;;;6.80;1.40;;;;;;;23.28;79.22;99360.48;179146;1267;44688;-62
2023/07/29 19:11:04;;;;;;;1.60;1.00;;;;;;;23.12;80.23;99366.77;179202;1267;45963;-61
2023/07/29 19:15:07;;;;;;;7.40;1.30;;;;;;;23.02;80.73;99379.45;179091;1267;58424;-60
2023/07/29 19:19:10;;;;;;;1.30;0.90;;;;;;;22.88;81.06;99394.50;179168;1267;43929;-61